Latest Weather Observations for Hobart

IDT60901

Issued at 3:31 am EST Wednesday 23 September 2020 (issued every 10 minutes, with the page automatically refreshed every 10 minutes)

About weather observations | Map of Hobart area stations | Latest observations for Hobart area | Other Formats
Station Details ID: 094029 Name: HOBART (ELLERSLIE ROAD) Lat: -42.89 Lon: 147.33 Height: 50.5 m
Data from the previous 72 hours. | See also: Recent months at Hobart
Date/Time
EST
Temp
°C
App
Temp
°C
Dew
Point
°C
Rel
Hum
%
Delta-T
°C
Wind Press
QNH
hPa
Press
MSL
hPa
Rain since
9am
mm
Dir  Spd
km/h
Gust
km/h
Spd
kts
Gust
kts
23/03:30am 10.6 4.8 4.3 65 2.8 NNE 24 37 13 20 994.1 994.1 0.0
23/03:20am 10.7 3.7 4.0 63 3.0 NNE 30 50 16 27 994.0 994.0 0.0
23/03:00am 10.5 5.0 4.0 64 2.9 NNE 22 43 12 23 994.1 994.1 0.0
23/02:30am 10.4 4.9 3.9 64 2.9 N 22 41 12 22 994.3 994.3 0.0
23/02:00am 10.0 5.6 4.6 69 2.4 N 17 33 9 18 994.6 994.6 0.0
23/01:30am 10.2 5.2 4.6 68 2.5 NNW 20 35 11 19 995.2 995.2 0.0
23/01:00am 10.0 5.3 5.2 72 2.2 NNW 19 30 10 16 995.4 995.4 0.0
23/12:30am 10.1 4.7 4.7 69 2.4 NNW 22 32 12 17 995.5 995.5 0.0
23/12:00am 10.5 5.7 4.6 67 2.7 NNW 19 26 10 14 995.7 995.7 0.0
 
Date/Time
EST
Temp
°C
App
Temp
°C
Dew
Point
°C
Rel
Hum
%
Delta-T
°C
Wind Press
QNH
hPa
Press
MSL
hPa
Rain since
9am
mm
Dir  Spd
km/h
Gust
km/h
Spd
kts
Gust
kts
22/11:30pm 10.9 5.6 4.8 66 2.8 NNW 22 28 12 15 995.8 995.8 0.0
22/11:00pm 11.3 5.2 4.7 64 3.0 NNW 26 35 14 19 995.7 995.7 0.0
22/10:30pm 11.6 5.8 4.6 62 3.2 NNW 24 37 13 20 995.5 995.5 0.0
22/10:00pm 11.4 7.0 4.8 64 3.0 NNW 17 30 9 16 995.4 995.4 0.0
22/09:30pm 11.4 6.6 5.5 67 2.7 N 20 33 11 18 995.3 995.3 0.0
22/09:00pm 11.3 7.1 5.8 69 2.6 N 17 26 9 14 995.2 995.2 0.0
22/08:30pm 11.5 6.4 6.0 69 2.6 NNW 22 35 12 19 995.1 995.1 0.0
22/08:00pm 11.8 6.8 6.5 70 2.5 N 22 30 12 16 995.1 995.1 0.0
22/07:30pm 12.2 8.2 6.7 69 2.6 N 17 26 9 14 995.0 995.0 0.0
22/07:00pm 12.9 8.5 6.7 66 3.0 NNW 19 28 10 15 994.8 994.8 0.0
22/06:30pm 13.0 8.5 6.8 66 3.0 WNW 20 28 11 15 994.6 994.6 0.0
22/06:00pm 13.6 9.2 6.7 63 3.4 NW 19 28 10 15 994.3 994.3 0.0
22/05:30pm 14.3 10.2 6.2 58 3.9 NW 17 26 9 14 994.2 994.2 0.0
22/05:00pm 14.5 9.9 6.6 59 3.9 NNW 20 28 11 15 993.9 993.9 0.0
22/04:30pm 15.1 9.6 6.1 55 4.3 NNW 24 32 13 17 993.7 993.7 0.0
22/04:00pm 15.9 9.5 5.2 49 5.1 NW 28 39 15 21 993.5 993.5 0.0
22/03:30pm 17.0 10.9 5.0 45 5.7 NNW 26 37 14 20 993.3 993.3 0.0
22/03:00pm 16.9 11.7 5.5 47 5.6 NNW 22 32 12 17 993.3 993.3 0.0
22/02:31pm 17.5 12.4 6.1 47 5.6 WNW 22 48 12 26 993.2 993.2 0.0
22/02:30pm 17.5 12.7 5.4 45 5.9 WNW 20 44 11 24 993.2 993.2 0.0
22/02:00pm 17.6 12.8 5.5 45 5.9 WNW 20 28 11 15 993.1 993.1 0.0
22/01:30pm 16.2 12.3 6.9 54 4.6 WNW 17 30 9 16 993.2 993.2 0.0
22/01:04pm 17.5 11.2 5.8 46 5.7 NW 28 46 15 25 993.3 993.3 0.0
22/01:00pm 17.4 10.4 6.0 47 5.6 NW 32 46 17 25 993.3 993.3 0.0
22/12:31pm 17.3 10.8 4.6 43 6.0 NW 28 50 15 27 993.4 993.4 0.0
22/12:30pm 17.3 10.8 4.9 44 5.9 NW 28 39 15 21 993.4 993.4 0.0
22/12:14pm 18.1 11.7 5.0 42 6.3 NW 28 46 15 25 993.4 993.4 0.0
22/12:00pm 17.5 10.2 4.5 42 6.2 NW 32 46 17 25 993.4 993.4 0.0
22/11:30am 17.0 10.7 5.6 47 5.5 NW 28 48 15 26 993.7 993.7 0.0
22/11:28am 16.7 10.3 5.0 46 5.6 NW 28 48 15 26 993.7 993.7 0.0
22/11:00am 16.9 10.1 4.9 45 5.8 NW 30 46 16 25 993.6 993.6 0.0
22/10:30am 15.9 10.2 4.9 48 5.2 NW 24 39 13 21 994.0 994.0 0.0
22/10:00am 15.9 10.5 4.6 47 5.4 NW 22 37 12 20 994.2 994.2 0.0
22/09:30am 15.0 8.8 4.4 49 4.9 NW 26 41 14 22 994.3 994.3 0.0
22/09:00am 15.2 9.5 4.9 50 4.9 NW 24 39 13 21 994.5 994.5 0.2
22/08:30am 14.0 9.2 5.4 56 4.1 N 20 28 11 15 994.5 994.5 0.2
22/08:00am 13.3 9.0 5.2 58 3.8 N 17 26 9 14 994.6 994.6 0.2
22/07:30am 12.4 8.8 4.9 60 3.5 NNW 13 17 7 9 995.0 995.0 0.2
22/07:00am 12.2 9.3 4.9 61 3.4 NW 9 11 5 6 995.1 995.1 0.2
22/06:30am 11.2 7.9 4.7 64 2.9 NNW 11 17 6 9 995.3 995.3 0.2
22/06:00am 10.4 6.8 4.8 68 2.6 NNW 13 20 7 11 995.2 995.2 0.2
22/05:30am 10.5 6.2 5.1 69 2.5 NNW 17 24 9 13 995.0 995.0 0.2
22/05:00am 9.3 6.6 5.7 78 1.7 WNW 9 13 5 7 995.0 995.0 0.2
22/04:30am 9.2 6.5 5.4 77 1.7 NW 9 15 5 8 994.8 994.8 0.2
22/04:00am 9.7 8.7 5.5 75 1.9 CALM 0 6 0 3 995.1 995.1 0.2
22/03:30am 9.5 7.3 5.1 74 2.0 S 6 7 3 4 995.3 995.3 0.2
22/03:00am 9.9 6.7 5.1 72 2.2 N 11 17 6 9 995.7 995.7 0.2
22/02:30am 9.6 6.8 5.2 74 2.0 N 9 15 5 8 996.1 996.1 0.2
22/02:00am 9.2 6.7 5.0 75 1.9 WNW 7 9 4 5 996.9 996.9 0.2
22/01:30am 9.3 6.8 4.9 74 2.0 W 7 13 4 7 997.5 997.5 0.2
22/01:00am 9.9 8.0 4.9 71 2.3 SW 4 9 2 5 998.0 998.0 0.2
22/12:30am 10.0 7.5 4.8 70 2.3 SSW 7 9 4 5 998.0 998.0 0.2
22/12:00am 10.4 8.9 5.0 69 2.5 ESE 2 6 1 3 998.1 998.1 0.2
 
Date/Time
EST
Temp
°C
App
Temp
°C
Dew
Point
°C
Rel
Hum
%
Delta-T
°C
Wind Press
QNH
hPa
Press
MSL
hPa
Rain since
9am
mm
Dir  Spd
km/h
Gust
km/h
Spd
kts
Gust
kts
21/11:30pm 10.8 8.5 4.7 66 2.8 SE 6 7 3 4 998.4 998.4 0.2
21/11:00pm 10.9 8.4 4.6 65 2.9 N 7 11 4 6 998.6 998.6 0.2
21/10:30pm 11.0 8.5 4.7 65 2.9 NW 7 13 4 7 998.7 998.7 0.2
21/10:00pm 11.9 8.3 4.9 62 3.2 NNW 13 20 7 11 999.0 999.0 0.2
21/09:30pm 12.2 8.9 4.7 60 3.4 NW 11 20 6 11 999.1 999.1 0.2
21/09:00pm 12.8 8.0 4.8 58 3.7 NW 19 30 10 16 998.8 998.8 0.2
21/08:30pm 13.2 8.3 4.9 57 3.8 NW 20 32 11 17 999.1 999.1 0.2
21/08:00pm 13.8 9.8 4.7 54 4.2 NNW 15 22 8 12 999.3 999.3 0.2
21/07:30pm 14.4 8.7 2.9 46 5.2 NNW 22 35 12 19 999.0 999.0 0.2
21/07:00pm 15.4 10.6 4.8 49 5.0 NNW 19 26 10 14 999.0 999.0 0.2
21/06:30pm 15.9 12.3 5.2 49 5.1 NW 13 20 7 11 998.5 998.5 0.2
21/06:00pm 16.1 12.9 5.1 48 5.3 W 11 30 6 16 998.1 998.1 0.2
21/05:30pm 17.1 13.9 5.1 45 5.8 W 11 20 6 11 997.5 997.5 0.2
21/05:00pm 18.0 13.4 3.9 39 6.7 WNW 17 24 9 13 997.4 997.4 0.2
21/04:30pm 18.5 13.9 3.6 37 7.0 WNW 17 24 9 13 997.3 997.3 0.2
21/04:00pm 18.8 13.2 3.4 36 7.3 NW 22 33 12 18 997.2 997.2 0.2
21/03:30pm 19.5 13.2 3.6 35 7.5 WNW 26 39 14 21 997.2 997.2 0.2
21/03:01pm 19.8 13.0 3.1 33 7.9 NW 28 46 15 25 997.2 997.2 0.2
21/03:00pm 19.7 13.3 3.0 33 7.9 NW 26 46 14 25 997.1 997.1 0.2
21/02:30pm 19.8 13.4 3.1 33 7.9 NW 26 37 14 20 997.1 997.1 0.2
21/02:00pm 19.9 13.7 4.4 36 7.5 NW 26 41 14 22 997.6 997.6 0.2
21/01:38pm 19.5 12.8 3.6 35 7.5 NW 28 46 15 25 998.0 998.0 0.2
21/01:30pm 19.2 12.8 3.0 34 7.6 NW 26 39 14 21 998.0 998.0 0.2
21/01:00pm 18.5 10.7 2.8 35 7.3 NNW 33 56 18 30 998.1 998.1 0.2
21/12:45pm 18.3 11.4 2.6 35 7.2 NNW 28 46 15 25 998.3 998.3 0.2
21/12:30pm 18.3 11.2 3.4 37 7.0 NW 30 48 16 26 998.5 998.5 0.2
21/12:20pm 18.2 11.5 3.7 38 6.8 NNW 28 52 15 28 998.5 998.5 0.2
21/12:00pm 18.5 12.1 5.0 41 6.6 NW 28 39 15 21 998.7 998.7 0.2
21/11:42am 18.4 10.9 4.2 39 6.8 NW 33 52 18 28 998.9 998.9 0.2
21/11:30am 17.7 9.8 4.3 41 6.4 NW 35 52 19 28 998.9 998.9 0.2
21/11:19am 17.9 11.0 4.8 42 6.3 NW 30 48 16 26 998.8 998.8 0.2
21/11:00am 17.4 11.8 5.4 45 5.8 NNW 24 43 13 23 998.6 998.6 0.2
21/10:30am 16.5 12.7 9.0 61 3.9 NNW 19 28 10 15 999.1 999.1 0.2
21/10:00am 15.5 10.6 8.3 62 3.7 NW 24 33 13 18 998.3 998.3 0.2
21/09:36am 13.5 7.1 8.4 71 2.6 NNW 32 50 17 27 999.1 999.1 0.2
21/09:30am 13.9 6.3 7.7 66 3.1 NW 37 50 20 27 999.4 999.4 0.2
21/09:04am 13.9 7.9 8.5 70 2.7 NNW 30 50 16 27 999.6 999.6 0.2
21/09:00am 13.9 8.4 9.3 74 2.4 NNW 28 43 15 23 999.7 999.7 1.0
21/08:30am 14.7 10.4 10.7 77 2.1 NNW 24 35 13 19 999.6 999.6 0.6
21/08:16am 14.9 11.4 10.9 77 2.1 NW 20 41 11 22 999.5 999.5 0.6
21/08:00am 15.9 14.4 10.4 70 2.9 NW 9 13 5 7 998.7 998.7 0.0
21/07:30am 16.7 14.0 10.5 67 3.3 NNW 15 24 8 13 998.0 998.0 0.0
21/07:00am 14.8 11.5 9.6 71 2.7 NNW 17 24 9 13 997.6 997.6 0.0
21/06:30am 15.0 11.2 9.8 71 2.7 NNW 20 32 11 17 997.6 997.6 0.0
21/06:00am 14.1 10.4 9.3 73 2.5 NW 19 28 10 15 998.0 998.0 0.0
21/05:30am 13.6 9.7 9.3 75 2.2 NNW 20 28 11 15 998.1 998.1 0.0
21/05:00am 13.4 10.0 9.3 76 2.1 NNW 17 26 9 14 998.3 998.3 0.0
21/04:30am 13.8 9.9 9.3 74 2.3 NNW 20 28 11 15 998.4 998.4 0.0
21/04:00am 14.3 10.3 9.1 71 2.7 NNW 20 32 11 17 998.5 998.5 0.0
21/03:30am 14.1 7.8 9.1 72 2.5 NNW 32 43 17 23 999.0 999.0 0.0
21/03:00am 14.5 9.4 9.3 71 2.7 N 26 35 14 19 998.9 998.9 0.0
21/02:30am 14.2 8.3 9.2 72 2.6 NNW 30 43 16 23 999.9 999.9 0.0
21/02:00am 14.5 10.6 9.3 71 2.7 NNW 20 32 11 17 1000.3 1000.3 0.0
21/01:30am 13.3 11.9 9.4 77 2.0 NE 7 13 4 7 1000.4 1000.4 0.0
21/01:00am 13.9 12.0 9.1 73 2.5 N 9 15 5 8 1000.7 1000.7 0.0
21/12:30am 14.6 12.7 9.2 70 2.8 NW 9 15 5 8 1000.9 1000.9 0.0
21/12:00am 15.2 13.4 9.6 69 2.9 NNE 9 19 5 10 1001.3 1001.3 0.0
 
Date/Time
EST
Temp
°C
App
Temp
°C
Dew
Point
°C
Rel
Hum
%
Delta-T
°C
Wind Press
QNH
hPa
Press
MSL
hPa
Rain since
9am
mm
Dir  Spd
km/h
Gust
km/h
Spd
kts
Gust
kts
20/11:30pm 15.0 13.1 9.1 68 3.0 NE 9 13 5 7 1001.4 1001.4 0.0
20/11:00pm 14.9 13.6 9.1 68 3.0 NNW 6 11 3 6 1001.6 1001.6 0.0
20/10:30pm 15.2 13.6 8.7 65 3.3 NNW 7 15 4 8 1001.4 1001.4 0.0
20/10:00pm 16.0 12.9 9.0 63 3.6 NNW 15 22 8 12 1001.5 1001.5 0.0
20/09:30pm 15.5 13.9 8.7 64 3.5 NNW 7 13 4 7 1001.6 1001.6 0.0
20/09:00pm 16.5 12.7 9.0 61 3.9 NNW 19 24 10 13 1001.6 1001.6 0.0
20/08:30pm 16.7 13.6 8.9 60 4.0 NNW 15 22 8 12 1001.4 1001.4 0.0
20/08:00pm 17.7 14.0 9.6 59 4.3 N 19 28 10 15 1001.2 1001.2 0.0
20/07:30pm 17.9 15.0 11.0 64 3.7 N 17 28 9 15 1001.0 1001.0 0.0
20/07:00pm 18.2 15.8 11.3 64 3.8 N 15 26 8 14 1001.0 1001.0 0.0
20/06:30pm 18.4 15.6 11.5 64 3.8 N 17 28 9 15 1000.8 1000.8 0.0
20/06:00pm 19.1 15.9 11.4 61 4.3 N 19 32 10 17 1000.5 1000.5 0.0
20/05:30pm 19.4 16.3 11.7 61 4.3 N 19 30 10 16 1000.6 1000.6 0.0
20/05:00pm 19.9 15.9 11.7 59 4.6 N 24 37 13 20 1000.8 1000.8 0.0
20/04:30pm 20.3 15.8 11.5 57 4.9 N 26 37 14 20 1000.8 1000.8 0.0
20/04:00pm 20.6 16.9 11.5 56 5.1 N 22 32 12 17 1001.0 1001.0 0.0
20/03:30pm 20.8 16.4 11.7 56 5.1 NNW 26 39 14 21 1001.5 1001.5 0.0
20/03:00pm 21.0 16.3 11.9 56 5.1 NNW 28 41 15 22 1001.7 1001.7 0.0
20/02:30pm 20.8 15.9 11.4 55 5.2 N 28 43 15 23 1002.0 1002.0 0.0
20/02:21pm 20.8 15.9 11.4 55 5.2 N 28 46 15 25 1002.1 1002.2 0.0
20/02:00pm 21.0 15.9 11.9 56 5.1 N 30 41 16 22 1002.5 1002.6 0.0
20/01:30pm 21.0 15.7 11.3 54 5.4 N 30 52 16 28 1002.7 1002.8 0.0
20/01:26pm 21.0 16.1 11.3 54 5.4 NNW 28 46 15 25 1002.7 1002.8 0.0
20/01:00pm 20.7 17.7 12.1 58 4.8 N 19 28 10 15 1003.2 1003.3 0.0
20/12:30pm 20.0 17.0 11.8 59 4.6 N 19 26 10 14 1003.7 1003.8 0.0
20/12:00pm 19.6 15.9 11.4 59 4.5 NNW 22 32 12 17 1004.3 1004.4 0.0
20/11:30am 19.1 15.2 10.9 59 4.5 NNW 22 30 12 16 1004.8 1004.9 0.0
20/11:00am 18.4 15.1 10.8 61 4.1 NNW 19 26 10 14 1005.2 1005.3 0.0
20/10:30am 18.4 15.9 11.2 63 3.9 NNW 15 22 8 12 1006.0 1006.1 0.0
20/10:00am 17.4 15.1 10.5 64 3.7 N 13 17 7 9 1006.6 1006.7 0.0
20/09:30am 16.7 14.4 10.3 66 3.4 NNW 13 19 7 10 1007.4 1007.5 0.0
20/09:00am 15.0 12.5 9.8 71 2.7 NNW 13 19 7 10 1007.6 1007.7 0.0
20/08:30am 13.5 11.0 9.6 77 2.0 NNW 13 17 7 9 1008.1 1008.2 0.0
20/08:00am 12.9 9.5 9.2 78 1.9 NNW 17 22 9 12 1008.7 1008.8 0.0
20/07:30am 12.4 9.0 9.2 81 1.6 NNW 17 22 9 12 1009.1 1009.2 0.0
20/07:00am 11.6 7.7 8.8 83 1.4 NNW 19 26 10 14 1009.6 1009.7 0.0
20/06:30am 11.8 8.0 9.0 83 1.4 NNW 19 26 10 14 1009.6 1009.7 0.0
20/06:00am 11.9 9.2 8.9 82 1.5 N 13 19 7 10 1009.6 1009.7 0.0
20/05:30am 12.0 9.3 9.0 82 1.5 N 13 20 7 11 1010.0 1010.1 0.0
20/05:00am 12.5 9.8 9.1 80 1.7 NNW 13 20 7 11 1010.6 1010.6 0.0
20/04:30am 12.2 9.6 9.2 82 1.5 NW 13 19 7 10 1011.0 1011.0 0.0
20/04:00am 12.1 9.4 9.1 82 1.5 NNW 13 22 7 12 1011.5 1011.5 0.0

Latest Capital City Observations: Canberra | Sydney | Melbourne | Brisbane | Adelaide | Perth | Hobart | Darwin

Other formats

Comma delimited format used in spreadsheet applications
http://www.bom.gov.au/fwo/IDT60901/IDT60901.94970.axf

JavaScript Object Notation format (JSON) in row-major order
http://www.bom.gov.au/fwo/IDT60901/IDT60901.94970.json

Data quality

Most of these data are generated automatically and are frequently updated. Quality checks on data are not normally performed. It is possible for incorrect values to appear. Refer to information at About Latest Weather Observations and please check the disclaimer before using these data.